createdAt,value
2022-09-13T00:01:19.905Z,16.46
2022-09-13T00:03:48.714Z,16.46
2022-09-13T00:06:19.294Z,16.46
2022-09-13T00:08:48.317Z,16.45
2022-09-13T00:11:20.581Z,16.48
2022-09-13T00:13:51.870Z,16.46
2022-09-13T00:16:24.304Z,16.45
2022-09-13T00:18:54.047Z,16.46
2022-09-13T00:21:24.301Z,16.48
2022-09-13T00:23:54.804Z,16.52
2022-09-13T00:26:25.882Z,16.59
2022-09-13T00:28:56.100Z,16.65
2022-09-13T00:31:26.967Z,16.72
2022-09-13T00:33:58.259Z,16.75
2022-09-13T00:36:27.479Z,16.77
2022-09-13T00:38:56.199Z,16.80
2022-09-13T00:41:25.048Z,16.84
2022-09-13T00:43:55.966Z,16.85
2022-09-13T00:46:31.267Z,16.87
2022-09-13T00:49:04.633Z,16.88
2022-09-13T00:51:33.428Z,16.87
2022-09-13T00:54:03.824Z,16.86
2022-09-13T00:56:39.416Z,16.85
2022-09-13T00:59:13.170Z,16.84
2022-09-13T01:01:49.210Z,16.83
2022-09-13T01:04:22.764Z,16.83
2022-09-13T01:06:56.031Z,16.79
2022-09-13T01:09:25.483Z,16.75
2022-09-13T01:12:03.864Z,16.76
2022-09-13T01:14:33.926Z,16.77
2022-09-13T01:17:02.988Z,16.79
2022-09-13T01:19:31.945Z,16.79
2022-09-13T01:22:51.634Z,16.82
2022-09-13T01:25:54.080Z,16.84
2022-09-13T01:28:48.014Z,16.86
2022-09-13T01:31:25.540Z,16.87
2022-09-13T01:34:13.118Z,16.87
2022-09-13T01:37:12.821Z,16.85
2022-09-13T01:39:56.798Z,16.83
2022-09-13T01:42:38.795Z,16.80
2022-09-13T01:45:21.192Z,16.78
2022-09-13T01:47:57.436Z,16.76
2022-09-13T01:50:37.796Z,16.77
2022-09-13T01:53:18.584Z,16.79
2022-09-13T01:55:56.559Z,16.75
2022-09-13T01:58:31.344Z,16.69
2022-09-13T02:01:08.198Z,16.71
2022-09-13T02:03:43.920Z,16.71
2022-09-13T02:06:14.135Z,16.70
2022-09-13T02:08:45.948Z,16.67
2022-09-13T02:11:17.068Z,16.64
2022-09-13T02:13:50.617Z,16.55
2022-09-13T02:16:26.653Z,16.43
2022-09-13T02:18:59.394Z,16.33
2022-09-13T02:21:31.145Z,16.30
2022-09-13T02:24:03.453Z,16.24
2022-09-13T02:26:34.392Z,16.14
2022-09-13T02:29:08.912Z,16.01
2022-09-13T02:31:44.318Z,15.85
2022-09-13T02:34:19.404Z,15.74
2022-09-13T02:36:50.044Z,15.67
2022-09-13T02:39:22.701Z,15.60
2022-09-13T02:41:57.132Z,15.54
2022-09-13T02:44:33.692Z,15.46
2022-09-13T02:47:21.003Z,15.31
2022-09-13T02:49:58.471Z,15.14
2022-09-13T02:52:38.334Z,15.12
2022-09-13T02:55:16.119Z,15.09
2022-09-13T02:57:59.651Z,15.07
2022-09-13T03:00:28.962Z,15.10
2022-09-13T03:03:02.246Z,15.08
2022-09-13T03:05:30.995Z,14.98
2022-09-13T03:08:00.944Z,14.93
2022-09-13T03:10:38.976Z,14.88
2022-09-13T03:13:22.203Z,14.87
2022-09-13T03:16:05.080Z,14.88
2022-09-13T03:18:49.444Z,14.86
2022-09-13T03:21:34.080Z,14.79
2022-09-13T03:24:15.108Z,14.69
2022-09-13T03:26:54.715Z,14.59
2022-09-13T03:29:31.235Z,14.52
2022-09-13T03:32:12.820Z,14.53
2022-09-13T03:34:48.504Z,14.56
2022-09-13T03:37:25.626Z,14.64
2022-09-13T03:40:00.434Z,14.68
2022-09-13T03:42:37.639Z,14.77
2022-09-13T03:45:09.655Z,14.78
2022-09-13T03:47:43.419Z,14.77
2022-09-13T03:50:17.966Z,14.75
2022-09-13T03:52:50.426Z,14.75
2022-09-13T03:55:21.044Z,14.73
2022-09-13T03:57:49.859Z,14.69
2022-09-13T04:00:20.324Z,14.64
2022-09-13T04:02:49.369Z,14.59
2022-09-13T04:05:18.159Z,14.56
2022-09-13T04:07:46.861Z,14.59
2022-09-13T04:10:15.754Z,14.62
2022-09-13T04:12:44.497Z,14.68
2022-09-13T04:15:13.431Z,14.75
2022-09-13T04:17:42.134Z,14.77
2022-09-13T04:20:11.309Z,14.80
2022-09-13T04:22:40.038Z,14.80
2022-09-13T04:25:11.280Z,14.73
2022-09-13T04:27:39.976Z,14.64
2022-09-13T04:30:11.208Z,14.58
2022-09-13T04:32:41.981Z,14.54
2022-09-13T04:35:11.735Z,14.52
2022-09-13T04:37:40.558Z,14.51
2022-09-13T04:40:11.175Z,14.50
2022-09-13T04:42:39.972Z,14.59
2022-09-13T04:45:10.844Z,14.66
2022-09-13T04:47:39.641Z,14.73
2022-09-13T04:50:09.782Z,14.79
2022-09-13T04:52:38.950Z,14.83
2022-09-13T04:55:09.609Z,14.88
2022-09-13T04:57:38.497Z,14.94
2022-09-13T05:00:10.168Z,15.01
2022-09-13T05:02:39.020Z,15.10
2022-09-13T05:05:08.919Z,15.18
2022-09-13T05:07:37.681Z,15.29
2022-09-13T05:10:08.573Z,15.39
2022-09-13T05:12:37.304Z,15.48
2022-09-13T05:15:08.728Z,15.59
2022-09-13T05:17:37.468Z,15.69
2022-09-13T05:20:08.867Z,15.79
2022-09-13T05:22:37.620Z,15.89
2022-09-13T05:25:08.583Z,15.95
2022-09-13T05:27:37.354Z,16.06
2022-09-13T05:30:08.253Z,16.17
2022-09-13T05:32:37.389Z,16.28
2022-09-13T05:35:07.488Z,16.40
2022-09-13T05:37:36.244Z,16.55
2022-09-13T05:40:13.780Z,16.71
2022-09-13T05:42:42.971Z,16.84
2022-09-13T05:45:12.157Z,16.84
2022-09-13T05:47:40.879Z,16.82
2022-09-13T05:50:18.951Z,16.87
2022-09-13T05:52:56.736Z,16.99
2022-09-13T05:55:26.583Z,17.04
2022-09-13T05:57:55.337Z,17.09
2022-09-13T06:00:24.479Z,17.14
2022-09-13T06:02:53.395Z,17.20
2022-09-13T06:05:22.371Z,17.31
2022-09-13T06:07:51.187Z,17.53
2022-09-13T06:10:20.231Z,17.82
2022-09-13T06:12:51.825Z,18.12
2022-09-13T06:15:20.633Z,18.43
2022-09-13T06:17:49.609Z,18.77
2022-09-13T06:20:18.483Z,19.09
2022-09-13T06:22:48.293Z,19.39
2022-09-13T06:25:17.115Z,19.61
2022-09-13T06:27:45.856Z,19.78
2022-09-13T06:30:15.184Z,20.05
2022-09-13T06:32:44.060Z,20.27
2022-09-13T06:35:12.969Z,20.39
2022-09-13T06:37:41.730Z,20.40
2022-09-13T06:40:11.651Z,20.35
2022-09-13T06:42:40.534Z,20.31
2022-09-13T06:45:10.467Z,20.33
2022-09-13T06:47:39.249Z,20.25
2022-09-13T06:50:09.476Z,20.18
2022-09-13T06:52:38.194Z,20.12
2022-09-13T06:55:12.455Z,20.08
2022-09-13T06:57:41.473Z,20.08
2022-09-13T07:00:13.267Z,20.08
2022-09-13T07:02:41.995Z,20.08
2022-09-13T07:05:11.062Z,20.10
2022-09-13T07:07:39.807Z,20.14
2022-09-13T07:10:10.216Z,20.14
2022-09-13T07:12:41.558Z,20.18
2022-09-13T07:15:11.506Z,20.23
2022-09-13T07:17:40.354Z,20.28
2022-09-13T07:20:10.408Z,20.24
2022-09-13T07:22:39.231Z,20.22
2022-09-13T07:25:09.960Z,20.17
2022-09-13T07:27:38.651Z,20.20
2022-09-13T07:30:10.149Z,20.30
2022-09-13T07:32:39.153Z,20.45
2022-09-13T07:35:08.328Z,20.59
2022-09-13T07:37:37.628Z,20.70
2022-09-13T07:40:09.022Z,20.77
2022-09-13T07:42:38.078Z,20.75
2022-09-13T07:45:08.976Z,20.75
2022-09-13T07:47:37.700Z,20.71
2022-09-13T07:50:07.952Z,20.75
2022-09-13T07:52:37.527Z,20.83
2022-09-13T07:55:07.397Z,20.85
2022-09-13T07:57:36.208Z,20.84
2022-09-13T08:00:07.461Z,20.91
2022-09-13T08:02:36.869Z,20.99
2022-09-13T08:05:07.264Z,21.06
2022-09-13T08:07:36.016Z,21.23
2022-09-13T08:10:05.400Z,21.33
2022-09-13T08:12:34.253Z,21.44
2022-09-13T08:15:03.789Z,21.59
2022-09-13T08:17:32.565Z,21.72
2022-09-13T08:20:01.783Z,21.85
2022-09-13T08:22:30.653Z,22.05
2022-09-13T08:24:59.414Z,22.37
2022-09-13T08:27:29.099Z,22.62
2022-09-13T08:29:57.955Z,22.67
2022-09-13T08:32:26.675Z,22.90
2022-09-13T08:34:55.638Z,23.11
2022-09-13T08:37:24.950Z,23.14
2022-09-13T08:39:53.878Z,23.12
2022-09-13T08:42:33.513Z,23.25
2022-09-13T08:45:02.601Z,23.32
2022-09-13T08:47:41.549Z,23.45
2022-09-13T08:50:19.434Z,23.60
2022-09-13T08:53:05.609Z,23.62
2022-09-13T08:55:47.505Z,23.87
2022-09-13T08:58:52.159Z,24.05
2022-09-13T09:01:38.133Z,24.19
2022-09-13T09:04:15.586Z,24.37
2022-09-13T09:06:44.566Z,24.46
2022-09-13T09:09:18.167Z,24.49
2022-09-13T09:11:52.120Z,24.36
2022-09-13T09:14:30.715Z,24.24
2022-09-13T09:17:04.402Z,24.17
2022-09-13T09:19:38.184Z,24.13
2022-09-13T09:22:16.051Z,24.26
2022-09-13T09:24:49.001Z,24.44
2022-09-13T09:27:19.861Z,24.53
2022-09-13T09:29:52.899Z,24.69
2022-09-13T09:32:38.520Z,24.73
2022-09-13T09:35:17.471Z,24.69
2022-09-13T09:37:56.891Z,24.65
2022-09-13T09:40:29.784Z,24.52
2022-09-13T09:43:01.737Z,24.33
2022-09-13T09:45:33.324Z,24.28
2022-09-13T09:48:08.879Z,24.38
2022-09-13T09:50:44.087Z,24.45
2022-09-13T09:53:16.255Z,24.44
2022-09-13T09:55:48.104Z,24.50
2022-09-13T09:58:18.420Z,24.40
2022-09-13T10:00:54.692Z,24.30
2022-09-13T10:03:28.580Z,24.18
2022-09-13T10:06:08.057Z,24.16
2022-09-13T10:08:39.049Z,24.33
2022-09-13T10:11:09.305Z,24.38
2022-09-13T10:13:38.325Z,24.45
2022-09-13T10:16:25.435Z,24.39
2022-09-13T10:18:55.500Z,24.30
2022-09-13T10:21:27.097Z,24.42
2022-09-13T10:24:21.369Z,24.61
2022-09-13T10:26:50.272Z,24.81
2022-09-13T10:29:19.212Z,24.76
2022-09-13T10:31:52.894Z,24.49
2022-09-13T10:34:25.547Z,24.52
2022-09-13T10:36:59.132Z,24.57
2022-09-13T10:39:35.218Z,24.64
2022-09-13T10:42:10.620Z,24.73
2022-09-13T10:44:43.504Z,24.75
2022-09-13T10:47:19.031Z,24.68
2022-09-13T10:49:53.256Z,24.70
2022-09-13T10:52:37.012Z,24.76
2022-09-13T10:55:35.793Z,24.80
2022-09-13T10:58:17.594Z,24.57
2022-09-13T11:01:05.772Z,24.37
2022-09-13T11:03:59.160Z,24.31
2022-09-13T11:06:35.651Z,24.24
2022-09-13T11:09:14.204Z,24.28
2022-09-13T11:11:52.964Z,24.38
2022-09-13T11:14:39.020Z,24.46
2022-09-13T11:17:19.363Z,24.36
2022-09-13T11:20:22.431Z,24.19
2022-09-13T11:23:06.587Z,24.13
2022-09-13T11:25:54.281Z,24.05
2022-09-13T11:28:30.799Z,23.91
2022-09-13T11:31:13.228Z,23.89
2022-09-13T11:33:55.432Z,23.89
2022-09-13T11:36:37.419Z,23.90
2022-09-13T11:39:17.151Z,23.97
2022-09-13T11:41:58.078Z,24.08
2022-09-13T11:44:54.903Z,24.16
2022-09-13T11:47:38.095Z,24.18
2022-09-13T11:50:26.663Z,24.22
2022-09-13T11:53:11.043Z,24.28
2022-09-13T11:55:45.579Z,24.27
2022-09-13T11:58:22.582Z,24.11
2022-09-13T12:00:55.195Z,23.92
2022-09-13T12:03:30.662Z,23.83
2022-09-13T12:06:05.184Z,23.69
2022-09-13T12:08:39.879Z,23.55
2022-09-13T12:11:16.111Z,23.49
2022-09-13T12:13:50.266Z,23.53
2022-09-13T12:16:26.251Z,23.57
2022-09-13T12:18:59.506Z,23.51
2022-09-13T12:21:35.071Z,23.52
2022-09-13T12:24:13.071Z,23.52
2022-09-13T12:26:48.003Z,23.58
2022-09-13T12:29:23.935Z,23.64
2022-09-13T12:31:56.504Z,23.62
2022-09-13T12:34:30.128Z,23.63
2022-09-13T12:37:16.212Z,23.67
2022-09-13T12:40:33.003Z,23.73
2022-09-13T12:43:32.909Z,23.78
2022-09-13T12:46:15.479Z,23.88
2022-09-13T12:49:12.370Z,23.90
2022-09-13T12:52:03.216Z,23.89
2022-09-13T12:54:57.408Z,23.87
2022-09-13T12:57:39.014Z,23.87
2022-09-13T13:00:24.375Z,23.90
2022-09-13T13:03:11.299Z,23.92
2022-09-13T13:05:44.529Z,23.93
2022-09-13T13:08:29.045Z,23.97
2022-09-13T13:11:04.978Z,24.02
2022-09-13T13:13:38.027Z,24.01
2022-09-13T13:16:25.975Z,23.98
2022-09-13T13:18:56.149Z,23.97
2022-09-13T13:21:33.882Z,23.99
2022-09-13T13:24:44.949Z,24.02
2022-09-13T13:27:36.832Z,24.05
2022-09-13T13:30:41.529Z,24.08
2022-09-13T13:33:28.889Z,24.12
2022-09-13T13:35:58.087Z,24.12
2022-09-13T13:38:48.463Z,24.12
2022-09-13T13:41:47.512Z,24.14
2022-09-13T13:44:52.323Z,24.20
2022-09-13T13:47:54.382Z,24.24
2022-09-13T13:50:23.240Z,24.30
2022-09-13T13:52:56.096Z,24.32
2022-09-13T13:55:41.346Z,24.36
2022-09-13T13:58:31.012Z,24.42
2022-09-13T14:01:02.188Z,24.45
2022-09-13T14:03:49.613Z,24.47
2022-09-13T14:06:28.396Z,24.50
2022-09-13T14:09:06.415Z,24.52
2022-09-13T14:11:48.136Z,24.55
2022-09-13T14:14:28.531Z,24.55
2022-09-13T14:17:18.750Z,24.54
2022-09-13T14:19:50.189Z,24.50
2022-09-13T14:22:21.668Z,24.50
2022-09-13T14:24:52.191Z,24.48
2022-09-13T14:27:24.084Z,24.45
2022-09-13T14:29:54.870Z,24.44
2022-09-13T14:32:26.882Z,24.44
2022-09-13T14:35:01.375Z,24.43
2022-09-13T14:37:32.523Z,24.40
2022-09-13T14:40:09.125Z,24.38
2022-09-13T14:42:45.451Z,24.36
2022-09-13T14:45:15.468Z,24.32
2022-09-13T14:47:51.751Z,24.27
2022-09-13T14:50:23.921Z,24.25
2022-09-13T14:52:56.476Z,24.21
2022-09-13T14:55:28.627Z,24.20
2022-09-13T14:58:03.687Z,24.18
2022-09-13T15:00:37.738Z,24.16
2022-09-13T15:03:15.873Z,24.13
2022-09-13T15:05:52.812Z,24.09
2022-09-13T15:08:47.056Z,24.09
2022-09-13T15:11:27.450Z,24.06
2022-09-13T15:14:26.244Z,24.04
2022-09-13T15:17:00.115Z,24.02
2022-09-13T15:19:35.260Z,23.97
2022-09-13T15:22:12.157Z,23.95
2022-09-13T15:24:46.174Z,23.93
2022-09-13T15:27:21.380Z,23.91
2022-09-13T15:29:55.132Z,23.89
2022-09-13T15:32:30.146Z,23.87
2022-09-13T15:35:00.944Z,23.83
2022-09-13T15:37:36.783Z,23.80
2022-09-13T15:40:22.402Z,23.76
2022-09-13T15:42:52.650Z,23.71
2022-09-13T15:45:22.536Z,23.65
2022-09-13T15:47:52.535Z,23.60
2022-09-13T15:50:24.249Z,23.52
2022-09-13T15:52:53.600Z,23.47
2022-09-13T15:55:22.768Z,23.39
2022-09-13T15:57:51.913Z,23.35
2022-09-13T16:00:23.139Z,23.29
2022-09-13T16:02:52.479Z,23.24
2022-09-13T16:05:21.371Z,23.20
2022-09-13T16:07:50.093Z,23.18
2022-09-13T16:10:22.120Z,23.14
2022-09-13T16:12:51.303Z,23.09
2022-09-13T16:15:20.447Z,23.04
2022-09-13T16:17:49.718Z,22.99
2022-09-13T16:20:18.471Z,22.97
2022-09-13T16:22:47.350Z,22.95
2022-09-13T16:25:16.895Z,22.93
2022-09-13T16:27:45.831Z,22.92
2022-09-13T16:30:19.387Z,22.88
2022-09-13T16:32:48.557Z,22.82
2022-09-13T16:35:18.187Z,22.79
2022-09-13T16:37:50.956Z,22.76
2022-09-13T16:40:20.215Z,22.72
2022-09-13T16:42:49.443Z,22.69
2022-09-13T16:45:18.463Z,22.67
2022-09-13T16:47:47.425Z,22.66
2022-09-13T16:50:16.426Z,22.65
2022-09-13T16:52:45.185Z,22.62
2022-09-13T16:55:14.155Z,22.59
2022-09-13T16:57:44.727Z,22.57
2022-09-13T17:00:19.473Z,22.55
2022-09-13T17:02:48.498Z,22.51
2022-09-13T17:05:17.639Z,22.51
2022-09-13T17:07:46.645Z,22.50
2022-09-13T17:10:15.404Z,22.48
2022-09-13T17:12:44.243Z,22.45
2022-09-13T17:15:13.213Z,22.44
2022-09-13T17:17:42.054Z,22.43
2022-09-13T17:20:15.563Z,22.42
2022-09-13T17:22:44.401Z,22.42
2022-09-13T17:25:13.140Z,22.40
2022-09-13T17:27:42.383Z,22.39
2022-09-13T17:30:13.145Z,22.39
2022-09-13T17:32:41.892Z,22.38
2022-09-13T17:35:11.316Z,22.37
2022-09-13T17:37:40.073Z,22.36
2022-09-13T17:40:10.173Z,22.35
2022-09-13T17:42:39.105Z,22.30
2022-09-13T17:45:09.203Z,22.27
2022-09-13T17:47:38.022Z,22.23
2022-09-13T17:50:08.963Z,22.17
2022-09-13T17:52:37.658Z,22.15
2022-09-13T17:55:07.181Z,22.13
2022-09-13T17:57:36.220Z,22.12
2022-09-13T18:00:07.987Z,22.09
2022-09-13T18:02:36.794Z,22.07
2022-09-13T18:05:10.633Z,22.06
2022-09-13T18:07:41.824Z,22.04
2022-09-13T18:10:32.317Z,22.04
2022-09-13T18:13:00.102Z,22.03
2022-09-13T18:15:29.080Z,22.01
2022-09-13T18:17:57.827Z,22.01
2022-09-13T18:20:26.639Z,21.98
2022-09-13T18:22:55.325Z,22.00
2022-09-13T18:25:24.092Z,21.99
2022-09-13T18:27:52.770Z,21.94
2022-09-13T18:30:21.474Z,21.89
2022-09-13T18:32:50.283Z,21.85
2022-09-13T18:35:18.964Z,21.80
2022-09-13T18:37:47.659Z,21.75
2022-09-13T18:40:16.988Z,21.74
2022-09-13T18:42:45.934Z,21.72
2022-09-13T18:45:14.907Z,21.68
2022-09-13T18:47:43.634Z,21.61
2022-09-13T18:50:14.774Z,21.50
2022-09-13T18:52:47.184Z,21.50
2022-09-13T18:55:16.086Z,21.45
2022-09-13T18:57:44.986Z,21.36
2022-09-13T19:00:14.522Z,21.19
2022-09-13T19:03:02.034Z,21.13
2022-09-13T19:05:33.924Z,21.13
2022-09-13T19:08:06.275Z,21.11
2022-09-13T19:10:35.135Z,21.05
2022-09-13T19:13:04.472Z,21.02
2022-09-13T19:15:33.768Z,21.01
2022-09-13T19:18:02.782Z,21.01
2022-09-13T19:20:31.566Z,20.97
2022-09-13T19:23:01.109Z,20.92
2022-09-13T19:25:30.118Z,20.90
2022-09-13T19:27:58.795Z,20.90
2022-09-13T19:30:27.539Z,20.89
2022-09-13T19:32:56.307Z,20.91
2022-09-13T19:35:26.059Z,20.93
2022-09-13T19:37:54.967Z,20.95
2022-09-13T19:40:24.411Z,20.96
2022-09-13T19:42:53.887Z,20.97
2022-09-13T19:45:22.724Z,20.97
2022-09-13T19:50:40.706Z,20.99
2022-09-13T19:53:09.824Z,20.99
2022-09-13T19:55:44.990Z,20.98
2022-09-13T19:58:13.868Z,20.96
2022-09-13T20:00:43.317Z,20.93
2022-09-13T20:03:12.107Z,20.91
2022-09-13T20:05:41.027Z,20.91
2022-09-13T20:08:09.927Z,20.91
2022-09-13T20:10:38.873Z,20.88
2022-09-13T20:13:07.647Z,20.83
2022-09-13T20:15:39.482Z,20.76
2022-09-13T20:18:12.651Z,20.72
2022-09-13T20:20:42.340Z,20.69
2022-09-13T20:23:11.514Z,20.66
2022-09-13T20:25:41.374Z,20.60
2022-09-13T20:28:10.936Z,20.55
2022-09-13T20:30:40.987Z,20.50
2022-09-13T20:33:10.979Z,20.40
2022-09-13T20:35:40.804Z,20.33
2022-09-13T20:38:09.679Z,20.24
2022-09-13T20:40:38.384Z,20.17
2022-09-13T20:43:07.588Z,20.13
2022-09-13T20:45:36.883Z,20.07
2022-09-13T20:48:05.727Z,20.04
2022-09-13T20:50:34.536Z,20.04
2022-09-13T20:53:03.243Z,20.04
2022-09-13T20:55:32.972Z,20.03
2022-09-13T20:58:01.735Z,19.99
2022-09-13T21:00:30.491Z,19.96
2022-09-13T21:02:59.284Z,19.92
2022-09-13T21:05:28.107Z,19.84
2022-09-13T21:08:20.522Z,19.76
2022-09-13T21:10:57.640Z,19.63
2022-09-13T21:13:26.363Z,19.54
2022-09-13T21:15:55.175Z,19.47
2022-09-13T21:18:23.914Z,19.46
2022-09-13T21:20:56.659Z,19.43
2022-09-13T21:23:26.468Z,19.39
2022-09-13T21:25:55.161Z,19.34
2022-09-13T21:28:23.953Z,19.28
2022-09-13T21:31:00.780Z,19.25
2022-09-13T21:33:29.757Z,19.25
2022-09-13T21:36:00.096Z,19.24
2022-09-13T21:38:30.924Z,19.24
2022-09-13T21:41:01.423Z,19.24
2022-09-13T21:43:31.017Z,19.21
2022-09-13T21:46:01.908Z,19.25
2022-09-13T21:48:32.396Z,19.25
2022-09-13T21:51:06.896Z,19.23
2022-09-13T21:53:39.211Z,19.22
2022-09-13T21:56:11.176Z,19.23
2022-09-13T21:58:40.239Z,19.24
2022-09-13T22:01:12.652Z,19.26
2022-09-13T22:03:43.656Z,19.27
2022-09-13T22:06:14.637Z,19.30
2022-09-13T22:08:46.110Z,19.32
2022-09-13T22:11:18.349Z,19.33
2022-09-13T22:13:47.431Z,19.34
2022-09-13T22:16:19.777Z,19.35
2022-09-13T22:18:50.304Z,19.37
2022-09-13T22:21:21.550Z,19.34
2022-09-13T22:23:50.708Z,19.35
2022-09-13T22:26:21.504Z,19.34
2022-09-13T22:28:51.208Z,19.30
2022-09-13T22:31:21.868Z,19.26
2022-09-13T22:33:51.906Z,19.24
2022-09-13T22:36:20.679Z,19.23
2022-09-13T22:38:54.626Z,19.22
2022-09-13T22:41:25.803Z,19.21
2022-09-13T22:43:55.080Z,19.17
2022-09-13T22:46:27.494Z,19.12
2022-09-13T22:48:56.652Z,19.08
2022-09-13T22:51:25.822Z,19.05
2022-09-13T22:53:56.091Z,19.00
2022-09-13T22:56:26.515Z,18.95
2022-09-13T22:58:57.028Z,18.92
2022-09-13T23:01:29.193Z,18.89
2022-09-13T23:03:59.619Z,18.84
2022-09-13T23:06:29.103Z,18.82
2022-09-13T23:09:00.129Z,18.81
2022-09-13T23:11:30.618Z,18.79
2022-09-13T23:14:01.877Z,18.74
2022-09-13T23:16:34.804Z,18.68
2022-09-13T23:19:03.660Z,18.59
2022-09-13T23:21:34.660Z,18.53
2022-09-13T23:24:05.801Z,18.53
2022-09-13T23:26:35.127Z,18.55
2022-09-13T23:29:05.066Z,18.56
2022-09-13T23:31:38.154Z,18.55
2022-09-13T23:34:09.559Z,18.53
2022-09-13T23:36:40.615Z,18.52
2022-09-13T23:39:12.543Z,18.51
2022-09-13T23:41:41.248Z,18.47
2022-09-13T23:44:10.286Z,18.38
2022-09-13T23:46:39.206Z,18.37
2022-09-13T23:49:08.215Z,18.36
2022-09-13T23:51:36.967Z,18.37
2022-09-13T23:54:06.330Z,18.35
2022-09-13T23:56:35.407Z,18.32
2022-09-13T23:59:05.224Z,18.30
